sensor_id;sensor_type;location;lat;lon;timestamp;P1;durP1;ratioP1;P2;durP2;ratioP2
22983;SDS011;11658;48.908;9.140;2023-02-22T04:01:35;8.37;;;5.90;;
22983;SDS011;11658;48.908;9.140;2023-02-22T04:04:01;7.53;;;6.07;;
22983;SDS011;11658;48.908;9.140;2023-02-22T04:06:27;7.67;;;5.87;;
22983;SDS011;11658;48.908;9.140;2023-02-22T04:08:52;7.37;;;6.10;;
22983;SDS011;11658;48.908;9.140;2023-02-22T04:11:18;8.30;;;6.07;;
22983;SDS011;11658;48.908;9.140;2023-02-22T04:13:44;6.90;;;5.67;;
22983;SDS011;11658;48.908;9.140;2023-02-22T04:16:10;7.40;;;5.80;;
22983;SDS011;11658;48.908;9.140;2023-02-22T04:18:35;8.43;;;5.93;;
22983;SDS011;11658;48.908;9.140;2023-02-22T04:21:01;5.87;;;5.07;;
22983;SDS011;11658;48.908;9.140;2023-02-22T04:23:26;7.20;;;5.67;;
22983;SDS011;11658;48.908;9.140;2023-02-22T04:25:52;7.53;;;5.30;;
22983;SDS011;11658;48.908;9.140;2023-02-22T04:28:18;10.53;;;5.90;;
22983;SDS011;11658;48.908;9.140;2023-02-22T04:30:44;10.23;;;5.83;;
22983;SDS011;11658;48.908;9.140;2023-02-22T04:33:09;7.73;;;6.07;;
22983;SDS011;11658;48.908;9.140;2023-02-22T04:35:35;7.77;;;5.73;;
22983;SDS011;11658;48.908;9.140;2023-02-22T04:38:01;7.53;;;5.70;;
22983;SDS011;11658;48.908;9.140;2023-02-22T04:40:28;8.10;;;5.30;;
22983;SDS011;11658;48.908;9.140;2023-02-22T04:42:54;8.03;;;5.07;;
22983;SDS011;11658;48.908;9.140;2023-02-22T04:45:20;8.70;;;5.53;;
22983;SDS011;11658;48.908;9.140;2023-02-22T04:47:45;7.53;;;5.13;;
22983;SDS011;11658;48.908;9.140;2023-02-22T04:50:11;6.20;;;5.27;;
22983;SDS011;11658;48.908;9.140;2023-02-22T04:52:37;8.80;;;5.40;;
22983;SDS011;11658;48.908;9.140;2023-02-22T04:55:03;6.50;;;5.43;;
22983;SDS011;11658;48.908;9.140;2023-02-22T04:57:29;8.20;;;5.27;;
22983;SDS011;11658;48.908;9.140;2023-02-22T04:59:55;6.70;;;4.67;;
22983;SDS011;11658;48.908;9.140;2023-02-22T05:02:20;5.47;;;4.87;;
22983;SDS011;11658;48.908;9.140;2023-02-22T05:04:46;8.13;;;5.73;;
22983;SDS011;11658;48.908;9.140;2023-02-22T05:07:12;7.50;;;5.37;;
22983;SDS011;11658;48.908;9.140;2023-02-22T05:09:38;5.93;;;4.83;;
22983;SDS011;11658;48.908;9.140;2023-02-22T05:12:03;8.13;;;5.10;;
22983;SDS011;11658;48.908;9.140;2023-02-22T05:14:29;6.37;;;5.10;;
22983;SDS011;11658;48.908;9.140;2023-02-22T05:16:57;8.30;;;5.90;;
22983;SDS011;11658;48.908;9.140;2023-02-22T05:19:23;6.67;;;5.27;;
22983;SDS011;11658;48.908;9.140;2023-02-22T05:21:49;6.47;;;5.30;;
22983;SDS011;11658;48.908;9.140;2023-02-22T05:24:15;9.50;;;5.47;;
22983;SDS011;11658;48.908;9.140;2023-02-22T05:26:41;6.67;;;5.20;;
22983;SDS011;11658;48.908;9.140;2023-02-22T05:29:08;8.40;;;4.90;;
22983;SDS011;11658;48.908;9.140;2023-02-22T05:31:33;8.00;;;5.20;;
22983;SDS011;11658;48.908;9.140;2023-02-22T05:33:59;7.63;;;5.27;;
22983;SDS011;11658;48.908;9.140;2023-02-22T05:36:24;7.17;;;5.10;;
22983;SDS011;11658;48.908;9.140;2023-02-22T05:38:52;6.83;;;5.10;;
22983;SDS011;11658;48.908;9.140;2023-02-22T05:41:18;6.80;;;5.30;;
22983;SDS011;11658;48.908;9.140;2023-02-22T05:43:43;7.17;;;5.10;;
22983;SDS011;11658;48.908;9.140;2023-02-22T05:46:09;7.57;;;5.30;;
22983;SDS011;11658;48.908;9.140;2023-02-22T05:48:34;7.17;;;5.40;;
22983;SDS011;11658;48.908;9.140;2023-02-22T05:51:00;6.33;;;5.63;;
22983;SDS011;11658;48.908;9.140;2023-02-22T05:53:28;8.13;;;5.40;;
22983;SDS011;11658;48.908;9.140;2023-02-22T05:55:54;6.67;;;4.93;;
22983;SDS011;11658;48.908;9.140;2023-02-22T05:58:19;6.80;;;5.17;;
22983;SDS011;11658;48.908;9.140;2023-02-22T06:00:45;6.50;;;5.27;;
22983;SDS011;11658;48.908;9.140;2023-02-22T06:03:11;8.37;;;5.40;;
22983;SDS011;11658;48.908;9.140;2023-02-22T06:05:37;8.27;;;5.40;;
22983;SDS011;11658;48.908;9.140;2023-02-22T06:08:03;8.17;;;5.60;;
22983;SDS011;11658;48.908;9.140;2023-02-22T06:10:30;9.20;;;6.30;;
22983;SDS011;11658;48.908;9.140;2023-02-22T06:12:56;8.47;;;6.50;;
22983;SDS011;11658;48.908;9.140;2023-02-22T06:15:22;8.30;;;6.10;;
22983;SDS011;11658;48.908;9.140;2023-02-22T06:17:49;6.93;;;5.83;;
22983;SDS011;11658;48.908;9.140;2023-02-22T06:20:17;10.70;;;5.90;;
22983;SDS011;11658;48.908;9.140;2023-02-22T06:22:51;7.13;;;5.70;;
22983;SDS011;11658;48.908;9.140;2023-02-22T06:25:20;8.77;;;5.97;;
22983;SDS011;11658;48.908;9.140;2023-02-22T06:27:47;9.07;;;6.10;;
22983;SDS011;11658;48.908;9.140;2023-02-22T06:30:14;9.90;;;5.87;;
22983;SDS011;11658;48.908;9.140;2023-02-22T06:32:41;9.77;;;5.43;;
22983;SDS011;11658;48.908;9.140;2023-02-22T06:35:07;7.23;;;5.73;;
22983;SDS011;11658;48.908;9.140;2023-02-22T06:37:33;7.17;;;5.50;;
22983;SDS011;11658;48.908;9.140;2023-02-22T06:39:59;7.97;;;6.07;;
22983;SDS011;11658;48.908;9.140;2023-02-22T06:42:25;10.57;;;6.47;;
22983;SDS011;11658;48.908;9.140;2023-02-22T06:44:50;10.40;;;6.23;;
22983;SDS011;11658;48.908;9.140;2023-02-22T06:47:16;8.70;;;5.80;;
22983;SDS011;11658;48.908;9.140;2023-02-22T06:49:41;8.50;;;5.47;;
22983;SDS011;11658;48.908;9.140;2023-02-22T06:52:07;9.80;;;5.87;;
22983;SDS011;11658;48.908;9.140;2023-02-22T06:54:34;7.47;;;5.27;;
22983;SDS011;11658;48.908;9.140;2023-02-22T06:57:00;8.27;;;5.50;;
22983;SDS011;11658;48.908;9.140;2023-02-22T06:59:26;6.87;;;5.47;;
22983;SDS011;11658;48.908;9.140;2023-02-22T07:01:52;8.50;;;5.50;;
22983;SDS011;11658;48.908;9.140;2023-02-22T07:04:18;7.50;;;5.63;;
22983;SDS011;11658;48.908;9.140;2023-02-22T07:06:45;8.33;;;5.20;;
22983;SDS011;11658;48.908;9.140;2023-02-22T07:09:12;7.93;;;5.50;;
22983;SDS011;11658;48.908;9.140;2023-02-22T07:11:38;7.20;;;5.43;;
22983;SDS011;11658;48.908;9.140;2023-02-22T07:14:04;9.70;;;5.17;;
22983;SDS011;11658;48.908;9.140;2023-02-22T07:16:30;7.33;;;5.37;;
22983;SDS011;11658;48.908;9.140;2023-02-22T07:18:55;8.37;;;5.47;;
22983;SDS011;11658;48.908;9.140;2023-02-22T07:21:21;9.23;;;6.30;;
22983;SDS011;11658;48.908;9.140;2023-02-22T07:23:51;7.17;;;5.60;;
22983;SDS011;11658;48.908;9.140;2023-02-22T07:26:17;8.30;;;6.20;;
22983;SDS011;11658;48.908;9.140;2023-02-22T07:28:43;10.00;;;6.00;;
22983;SDS011;11658;48.908;9.140;2023-02-22T07:31:09;8.77;;;5.47;;
22983;SDS011;11658;48.908;9.140;2023-02-22T07:33:35;9.70;;;5.80;;
22983;SDS011;11658;48.908;9.140;2023-02-22T07:36:00;9.53;;;6.13;;
22983;SDS011;11658;48.908;9.140;2023-02-22T07:38:26;11.20;;;6.63;;
22983;SDS011;11658;48.908;9.140;2023-02-22T07:40:52;7.17;;;5.47;;
22983;SDS011;11658;48.908;9.140;2023-02-22T07:45:51;7.27;;;6.53;;
22983;SDS011;11658;48.908;9.140;2023-02-22T07:48:19;7.90;;;6.07;;
22983;SDS011;11658;48.908;9.140;2023-02-22T07:50:47;7.83;;;5.67;;
22983;SDS011;11658;48.908;9.140;2023-02-22T07:53:14;7.80;;;5.37;;
22983;SDS011;11658;48.908;9.140;2023-02-22T07:55:48;10.53;;;5.63;;
22983;SDS011;11658;48.908;9.140;2023-02-22T07:58:15;7.00;;;5.80;;
22983;SDS011;11658;48.908;9.140;2023-02-22T08:00:42;7.50;;;5.73;;
22983;SDS011;11658;48.908;9.140;2023-02-22T08:03:09;6.63;;;5.30;;
22983;SDS011;11658;48.908;9.140;2023-02-22T08:05:37;7.37;;;5.97;;
22983;SDS011;11658;48.908;9.140;2023-02-22T08:08:04;8.00;;;5.83;;
22983;SDS011;11658;48.908;9.140;2023-02-22T08:10:31;8.67;;;5.90;;
22983;SDS011;11658;48.908;9.140;2023-02-22T08:12:57;8.70;;;6.47;;
22983;SDS011;11658;48.908;9.140;2023-02-22T08:15:27;7.93;;;6.23;;
22983;SDS011;11658;48.908;9.140;2023-02-22T08:17:55;9.20;;;6.13;;
22983;SDS011;11658;48.908;9.140;2023-02-22T08:20:21;9.10;;;6.37;;
22983;SDS011;11658;48.908;9.140;2023-02-22T08:22:47;9.60;;;6.50;;
22983;SDS011;11658;48.908;9.140;2023-02-22T08:25:15;9.17;;;6.87;;
22983;SDS011;11658;48.908;9.140;2023-02-22T08:27:42;9.30;;;6.67;;
22983;SDS011;11658;48.908;9.140;2023-02-22T08:30:09;7.87;;;6.30;;
22983;SDS011;11658;48.908;9.140;2023-02-22T08:32:39;8.83;;;6.87;;
22983;SDS011;11658;48.908;9.140;2023-02-22T08:35:04;9.50;;;6.20;;
22983;SDS011;11658;48.908;9.140;2023-02-22T08:37:30;9.23;;;6.40;;
22983;SDS011;11658;48.908;9.140;2023-02-22T08:39:56;9.13;;;5.97;;
22983;SDS011;11658;48.908;9.140;2023-02-22T08:42:21;8.90;;;6.93;;
22983;SDS011;11658;48.908;9.140;2023-02-22T08:44:47;9.80;;;7.40;;
22983;SDS011;11658;48.908;9.140;2023-02-22T08:47:13;8.70;;;6.93;;
22983;SDS011;11658;48.908;9.140;2023-02-22T08:49:39;9.10;;;6.97;;
22983;SDS011;11658;48.908;9.140;2023-02-22T08:52:06;7.07;;;6.33;;
22983;SDS011;11658;48.908;9.140;2023-02-22T08:54:32;14.47;;;6.73;;
22983;SDS011;11658;48.908;9.140;2023-02-22T08:56:57;10.20;;;7.43;;
22983;SDS011;11658;48.908;9.140;2023-02-22T08:59:23;9.30;;;6.30;;
22983;SDS011;11658;48.908;9.140;2023-02-22T09:01:49;8.47;;;6.00;;
22983;SDS011;11658;48.908;9.140;2023-02-22T09:04:14;8.30;;;6.30;;
22983;SDS011;11658;48.908;9.140;2023-02-22T09:06:40;8.80;;;5.90;;
22983;SDS011;11658;48.908;9.140;2023-02-22T09:09:07;7.97;;;5.77;;
22983;SDS011;11658;48.908;9.140;2023-02-22T09:11:32;8.47;;;5.87;;
22983;SDS011;11658;48.908;9.140;2023-02-22T09:13:58;8.23;;;5.93;;
22983;SDS011;11658;48.908;9.140;2023-02-22T09:16:24;8.80;;;5.93;;
22983;SDS011;11658;48.908;9.140;2023-02-22T09:18:49;8.40;;;6.20;;
22983;SDS011;11658;48.908;9.140;2023-02-22T09:21:15;8.20;;;5.47;;
22983;SDS011;11658;48.908;9.140;2023-02-22T09:23:40;8.70;;;6.20;;
22983;SDS011;11658;48.908;9.140;2023-02-22T09:26:07;8.27;;;5.90;;
22983;SDS011;11658;48.908;9.140;2023-02-22T09:28:34;7.27;;;5.67;;
22983;SDS011;11658;48.908;9.140;2023-02-22T09:30:59;10.47;;;6.30;;
22983;SDS011;11658;48.908;9.140;2023-02-22T09:33:25;9.10;;;6.40;;
22983;SDS011;11658;48.908;9.140;2023-02-22T09:35:51;8.67;;;6.03;;
22983;SDS011;11658;48.908;9.140;2023-02-22T09:38:20;11.50;;;6.20;;
22983;SDS011;11658;48.908;9.140;2023-02-22T09:43:52;9.37;;;6.17;;
22983;SDS011;11658;48.908;9.140;2023-02-22T09:46:36;8.30;;;6.30;;
22983;SDS011;11658;48.908;9.140;2023-02-22T09:49:08;11.13;;;6.33;;
22983;SDS011;11658;48.908;9.140;2023-02-22T09:54:28;7.03;;;5.80;;
22983;SDS011;11658;48.908;9.140;2023-02-22T09:56:59;10.10;;;6.00;;
22983;SDS011;11658;48.908;9.140;2023-02-22T09:59:29;9.57;;;6.57;;
22983;SDS011;11658;48.908;9.140;2023-02-22T10:02:01;7.23;;;6.07;;
22983;SDS011;11658;48.908;9.140;2023-02-22T10:04:41;8.93;;;5.97;;
22983;SDS011;11658;48.908;9.140;2023-02-22T10:07:22;7.23;;;6.00;;
22983;SDS011;11658;48.908;9.140;2023-02-22T10:09:58;8.37;;;6.00;;
22983;SDS011;11658;48.908;9.140;2023-02-22T10:20:59;7.60;;;5.90;;
22983;SDS011;11658;48.908;9.140;2023-02-22T10:26:31;7.87;;;6.00;;
22983;SDS011;11658;48.908;9.140;2023-02-22T10:31:42;7.93;;;6.10;;
22983;SDS011;11658;48.908;9.140;2023-02-22T10:34:14;6.63;;;5.93;;
22983;SDS011;11658;48.908;9.140;2023-02-22T10:36:44;8.30;;;6.27;;
22983;SDS011;11658;48.908;9.140;2023-02-22T10:41:47;6.77;;;5.73;;
22983;SDS011;11658;48.908;9.140;2023-02-22T10:44:15;10.60;;;6.10;;
22983;SDS011;11658;48.908;9.140;2023-02-22T10:46:41;10.63;;;6.20;;
22983;SDS011;11658;48.908;9.140;2023-02-22T10:49:09;7.80;;;5.70;;
22983;SDS011;11658;48.908;9.140;2023-02-22T10:51:41;12.47;;;5.77;;
22983;SDS011;11658;48.908;9.140;2023-02-22T10:56:48;7.20;;;5.73;;
22983;SDS011;11658;48.908;9.140;2023-02-22T11:01:59;7.70;;;5.73;;
22983;SDS011;11658;48.908;9.140;2023-02-22T11:04:26;5.93;;;4.90;;
22983;SDS011;11658;48.908;9.140;2023-02-22T11:09:23;8.57;;;6.23;;
22983;SDS011;11658;48.908;9.140;2023-02-22T11:11:50;9.60;;;6.07;;
22983;SDS011;11658;48.908;9.140;2023-02-22T11:14:32;7.77;;;6.10;;
22983;SDS011;11658;48.908;9.140;2023-02-22T11:16:59;7.77;;;6.73;;
22983;SDS011;11658;48.908;9.140;2023-02-22T11:19:30;9.07;;;6.70;;
22983;SDS011;11658;48.908;9.140;2023-02-22T11:22:08;7.17;;;6.03;;
22983;SDS011;11658;48.908;9.140;2023-02-22T11:24:43;8.60;;;6.30;;
22983;SDS011;11658;48.908;9.140;2023-02-22T11:27:30;7.57;;;6.10;;
22983;SDS011;11658;48.908;9.140;2023-02-22T11:30:50;7.90;;;6.20;;
22983;SDS011;11658;48.908;9.140;2023-02-22T11:33:15;6.37;;;5.70;;
22983;SDS011;11658;48.908;9.140;2023-02-22T11:38:24;7.13;;;6.00;;
22983;SDS011;11658;48.908;9.140;2023-02-22T11:43:40;8.57;;;5.63;;
22983;SDS011;11658;48.908;9.140;2023-02-22T11:46:10;7.73;;;6.30;;
22983;SDS011;11658;48.908;9.140;2023-02-22T11:54:38;9.10;;;6.40;;
22983;SDS011;11658;48.908;9.140;2023-02-22T11:59:44;8.10;;;6.07;;
22983;SDS011;11658;48.908;9.140;2023-02-22T12:02:31;8.33;;;6.93;;
22983;SDS011;11658;48.908;9.140;2023-02-22T12:08:34;11.33;;;6.70;;
22983;SDS011;11658;48.908;9.140;2023-02-22T12:11:14;8.90;;;6.67;;
22983;SDS011;11658;48.908;9.140;2023-02-22T12:14:11;10.37;;;6.90;;
22983;SDS011;11658;48.908;9.140;2023-02-22T12:22:08;8.53;;;6.70;;
22983;SDS011;11658;48.908;9.140;2023-02-22T12:24:46;9.40;;;6.70;;
22983;SDS011;11658;48.908;9.140;2023-02-22T12:27:27;9.83;;;6.90;;
22983;SDS011;11658;48.908;9.140;2023-02-22T12:30:00;11.17;;;7.03;;
22983;SDS011;11658;48.908;9.140;2023-02-22T12:32:36;8.87;;;7.17;;
22983;SDS011;11658;48.908;9.140;2023-02-22T12:35:18;9.20;;;7.33;;
22983;SDS011;11658;48.908;9.140;2023-02-22T12:37:59;9.70;;;6.90;;
22983;SDS011;11658;48.908;9.140;2023-02-22T12:45:56;7.83;;;6.57;;
22983;SDS011;11658;48.908;9.140;2023-02-22T12:54:00;9.63;;;7.27;;
22983;SDS011;11658;48.908;9.140;2023-02-22T12:56:41;7.43;;;6.13;;
22983;SDS011;11658;48.908;9.140;2023-02-22T12:59:18;9.50;;;7.53;;
22983;SDS011;11658;48.908;9.140;2023-02-22T13:01:57;7.43;;;6.17;;
22983;SDS011;11658;48.908;9.140;2023-02-22T13:04:42;9.37;;;7.03;;
22983;SDS011;11658;48.908;9.140;2023-02-22T13:13:03;9.57;;;7.33;;
22983;SDS011;11658;48.908;9.140;2023-02-22T13:15:27;8.43;;;7.00;;
22983;SDS011;11658;48.908;9.140;2023-02-22T13:17:58;9.03;;;7.37;;
22983;SDS011;11658;48.908;9.140;2023-02-22T13:20:38;7.73;;;6.83;;
22983;SDS011;11658;48.908;9.140;2023-02-22T13:29:03;8.07;;;7.10;;
22983;SDS011;11658;48.908;9.140;2023-02-22T13:43:34;10.27;;;8.00;;
22983;SDS011;11658;48.908;9.140;2023-02-22T13:54:07;10.37;;;7.77;;
22983;SDS011;11658;48.908;9.140;2023-02-22T13:56:44;12.60;;;8.10;;
22983;SDS011;11658;48.908;9.140;2023-02-22T13:59:22;15.00;;;9.80;;
22983;SDS011;11658;48.908;9.140;2023-02-22T14:01:57;9.53;;;8.20;;
22983;SDS011;11658;48.908;9.140;2023-02-22T14:06:53;10.07;;;7.83;;
22983;SDS011;11658;48.908;9.140;2023-02-22T14:15:12;11.00;;;8.13;;
22983;SDS011;11658;48.908;9.140;2023-02-22T14:17:42;10.10;;;7.67;;
22983;SDS011;11658;48.908;9.140;2023-02-22T14:22:44;12.30;;;8.77;;
22983;SDS011;11658;48.908;9.140;2023-02-22T14:25:28;10.03;;;8.80;;
22983;SDS011;11658;48.908;9.140;2023-02-22T14:27:57;10.90;;;8.73;;
22983;SDS011;11658;48.908;9.140;2023-02-22T14:30:29;9.50;;;8.50;;
22983;SDS011;11658;48.908;9.140;2023-02-22T14:32:57;11.20;;;9.53;;
22983;SDS011;11658;48.908;9.140;2023-02-22T14:35:24;9.17;;;8.27;;
22983;SDS011;11658;48.908;9.140;2023-02-22T14:37:56;14.13;;;9.50;;
22983;SDS011;11658;48.908;9.140;2023-02-22T14:40:30;10.00;;;8.23;;
22983;SDS011;11658;48.908;9.140;2023-02-22T14:45:34;10.67;;;8.07;;
22983;SDS011;11658;48.908;9.140;2023-02-22T14:48:21;11.93;;;8.10;;
22983;SDS011;11658;48.908;9.140;2023-02-22T14:56:29;10.03;;;7.47;;
22983;SDS011;11658;48.908;9.140;2023-02-22T15:03:54;9.53;;;7.97;;
22983;SDS011;11658;48.908;9.140;2023-02-22T15:06:24;12.27;;;8.07;;
22983;SDS011;11658;48.908;9.140;2023-02-22T15:09:12;10.60;;;7.90;;
22983;SDS011;11658;48.908;9.140;2023-02-22T15:11:38;11.40;;;7.67;;
22983;SDS011;11658;48.908;9.140;2023-02-22T15:16:54;13.07;;;10.60;;
22983;SDS011;11658;48.908;9.140;2023-02-22T15:19:24;10.30;;;7.90;;
22983;SDS011;11658;48.908;9.140;2023-02-22T15:21:55;8.10;;;7.30;;
22983;SDS011;11658;48.908;9.140;2023-02-22T15:24:25;8.90;;;7.27;;
22983;SDS011;11658;48.908;9.140;2023-02-22T15:26:51;12.20;;;8.50;;
22983;SDS011;11658;48.908;9.140;2023-02-22T15:31:49;13.23;;;7.87;;
22983;SDS011;11658;48.908;9.140;2023-02-22T15:36:49;8.30;;;7.50;;
22983;SDS011;11658;48.908;9.140;2023-02-22T15:44:39;9.27;;;7.70;;
22983;SDS011;11658;48.908;9.140;2023-02-22T15:47:10;11.13;;;8.70;;
22983;SDS011;11658;48.908;9.140;2023-02-22T15:49:43;11.60;;;9.47;;
22983;SDS011;11658;48.908;9.140;2023-02-22T15:52:19;10.13;;;8.10;;
22983;SDS011;11658;48.908;9.140;2023-02-22T15:54:48;13.10;;;9.33;;
22983;SDS011;11658;48.908;9.140;2023-02-22T15:57:16;10.73;;;7.93;;
22983;SDS011;11658;48.908;9.140;2023-02-22T15:59:46;10.53;;;8.20;;
22983;SDS011;11658;48.908;9.140;2023-02-22T16:02:23;11.33;;;8.93;;
22983;SDS011;11658;48.908;9.140;2023-02-22T16:04:59;11.20;;;8.43;;
22983;SDS011;11658;48.908;9.140;2023-02-22T16:07:29;10.27;;;9.17;;
22983;SDS011;11658;48.908;9.140;2023-02-22T16:09:55;9.87;;;8.53;;
22983;SDS011;11658;48.908;9.140;2023-02-22T16:14:48;12.40;;;9.00;;
22983;SDS011;11658;48.908;9.140;2023-02-22T16:17:23;11.30;;;8.30;;
22983;SDS011;11658;48.908;9.140;2023-02-22T16:22:35;12.20;;;7.63;;
22983;SDS011;11658;48.908;9.140;2023-02-22T16:27:43;9.80;;;7.33;;
22983;SDS011;11658;48.908;9.140;2023-02-22T16:32:45;8.23;;;7.40;;
22983;SDS011;11658;48.908;9.140;2023-02-22T16:35:14;9.77;;;7.90;;
22983;SDS011;11658;48.908;9.140;2023-02-22T16:37:49;8.53;;;7.23;;
22983;SDS011;11658;48.908;9.140;2023-02-22T16:40:20;12.37;;;8.17;;
22983;SDS011;11658;48.908;9.140;2023-02-22T16:42:51;9.20;;;7.40;;
22983;SDS011;11658;48.908;9.140;2023-02-22T16:45:18;11.80;;;7.87;;
22983;SDS011;11658;48.908;9.140;2023-02-22T16:47:44;12.70;;;7.83;;
22983;SDS011;11658;48.908;9.140;2023-02-22T16:50:10;12.60;;;7.80;;
22983;SDS011;11658;48.908;9.140;2023-02-22T16:52:39;9.83;;;7.47;;
22983;SDS011;11658;48.908;9.140;2023-02-22T16:55:08;9.90;;;7.33;;
22983;SDS011;11658;48.908;9.140;2023-02-22T16:57:35;11.53;;;7.10;;
22983;SDS011;11658;48.908;9.140;2023-02-22T17:00:03;10.80;;;7.80;;
22983;SDS011;11658;48.908;9.140;2023-02-22T17:02:37;9.00;;;6.90;;
22983;SDS011;11658;48.908;9.140;2023-02-22T17:05:03;14.57;;;9.10;;
22983;SDS011;11658;48.908;9.140;2023-02-22T17:07:29;10.60;;;8.60;;
22983;SDS011;11658;48.908;9.140;2023-02-22T17:09:55;10.30;;;7.67;;
22983;SDS011;11658;48.908;9.140;2023-02-22T17:12:22;12.00;;;7.57;;
22983;SDS011;11658;48.908;9.140;2023-02-22T17:14:48;10.23;;;7.43;;
22983;SDS011;11658;48.908;9.140;2023-02-22T17:17:15;11.30;;;8.10;;
22983;SDS011;11658;48.908;9.140;2023-02-22T17:19:41;8.20;;;6.80;;
22983;SDS011;11658;48.908;9.140;2023-02-22T17:22:07;10.47;;;7.53;;
22983;SDS011;11658;48.908;9.140;2023-02-22T17:24:41;10.27;;;7.53;;
22983;SDS011;11658;48.908;9.140;2023-02-22T17:27:07;14.07;;;8.10;;
22983;SDS011;11658;48.908;9.140;2023-02-22T17:29:32;14.57;;;8.33;;
22983;SDS011;11658;48.908;9.140;2023-02-22T17:31:58;12.97;;;7.90;;
22983;SDS011;11658;48.908;9.140;2023-02-22T17:34:23;10.70;;;8.30;;
22983;SDS011;11658;48.908;9.140;2023-02-22T17:36:49;13.50;;;8.10;;
22983;SDS011;11658;48.908;9.140;2023-02-22T17:39:15;12.10;;;7.47;;
22983;SDS011;11658;48.908;9.140;2023-02-22T17:41:40;13.33;;;7.83;;
22983;SDS011;11658;48.908;9.140;2023-02-22T17:44:06;10.13;;;8.13;;
22983;SDS011;11658;48.908;9.140;2023-02-22T17:46:32;13.03;;;7.73;;
22983;SDS011;11658;48.908;9.140;2023-02-22T17:48:58;12.23;;;8.20;;
22983;SDS011;11658;48.908;9.140;2023-02-22T17:51:24;11.57;;;8.07;;
22983;SDS011;11658;48.908;9.140;2023-02-22T17:53:50;10.67;;;8.27;;
22983;SDS011;11658;48.908;9.140;2023-02-22T17:56:17;11.90;;;8.53;;
22983;SDS011;11658;48.908;9.140;2023-02-22T17:58:46;11.30;;;7.87;;
22983;SDS011;11658;48.908;9.140;2023-02-22T18:01:18;10.40;;;7.53;;
22983;SDS011;11658;48.908;9.140;2023-02-22T18:03:52;10.00;;;8.07;;
22983;SDS011;11658;48.908;9.140;2023-02-22T18:06:20;9.43;;;8.10;;
22983;SDS011;11658;48.908;9.140;2023-02-22T18:08:46;11.37;;;7.97;;
22983;SDS011;11658;48.908;9.140;2023-02-22T18:11:16;11.57;;;8.60;;
22983;SDS011;11658;48.908;9.140;2023-02-22T18:13:41;19.37;;;10.00;;
22983;SDS011;11658;48.908;9.140;2023-02-22T18:16:07;10.87;;;8.40;;
22983;SDS011;11658;48.908;9.140;2023-02-22T18:18:34;11.87;;;8.43;;
22983;SDS011;11658;48.908;9.140;2023-02-22T18:21:00;11.97;;;9.10;;
22983;SDS011;11658;48.908;9.140;2023-02-22T18:23:30;13.13;;;8.77;;
22983;SDS011;11658;48.908;9.140;2023-02-22T18:25:57;10.07;;;8.87;;
22983;SDS011;11658;48.908;9.140;2023-02-22T18:28:23;11.13;;;8.70;;
22983;SDS011;11658;48.908;9.140;2023-02-22T18:30:49;12.23;;;10.07;;
22983;SDS011;11658;48.908;9.140;2023-02-22T18:33:15;13.53;;;9.73;;
22983;SDS011;11658;48.908;9.140;2023-02-22T18:35:45;13.33;;;9.63;;
22983;SDS011;11658;48.908;9.140;2023-02-22T18:38:16;11.03;;;9.70;;
22983;SDS011;11658;48.908;9.140;2023-02-22T18:40:56;11.73;;;9.17;;
22983;SDS011;11658;48.908;9.140;2023-02-22T18:43:26;11.27;;;9.50;;
22983;SDS011;11658;48.908;9.140;2023-02-22T18:45:54;11.47;;;9.07;;
22983;SDS011;11658;48.908;9.140;2023-02-22T18:48:28;14.43;;;9.90;;
22983;SDS011;11658;48.908;9.140;2023-02-22T18:50:54;15.60;;;10.00;;
22983;SDS011;11658;48.908;9.140;2023-02-22T18:53:23;14.90;;;9.63;;
22983;SDS011;11658;48.908;9.140;2023-02-22T18:55:49;12.33;;;9.83;;
22983;SDS011;11658;48.908;9.140;2023-02-22T18:58:15;14.13;;;9.97;;
22983;SDS011;11658;48.908;9.140;2023-02-22T19:00:40;15.30;;;10.53;;
22983;SDS011;11658;48.908;9.140;2023-02-22T19:03:06;13.23;;;10.80;;
22983;SDS011;11658;48.908;9.140;2023-02-22T19:05:33;12.83;;;10.10;;
22983;SDS011;11658;48.908;9.140;2023-02-22T19:07:59;17.87;;;10.70;;
22983;SDS011;11658;48.908;9.140;2023-02-22T19:10:25;11.90;;;9.67;;
22983;SDS011;11658;48.908;9.140;2023-02-22T19:12:51;14.93;;;10.60;;
22983;SDS011;11658;48.908;9.140;2023-02-22T19:15:17;13.77;;;10.77;;
22983;SDS011;11658;48.908;9.140;2023-02-22T19:17:43;11.47;;;10.27;;
22983;SDS011;11658;48.908;9.140;2023-02-22T19:20:09;12.80;;;9.90;;
22983;SDS011;11658;48.908;9.140;2023-02-22T19:22:35;12.63;;;10.00;;
22983;SDS011;11658;48.908;9.140;2023-02-22T19:25:01;13.60;;;10.70;;
22983;SDS011;11658;48.908;9.140;2023-02-22T19:27:28;14.57;;;10.87;;
22983;SDS011;11658;48.908;9.140;2023-02-22T19:29:55;14.37;;;9.83;;
22983;SDS011;11658;48.908;9.140;2023-02-22T19:32:21;14.87;;;10.70;;
22983;SDS011;11658;48.908;9.140;2023-02-22T19:34:51;15.97;;;11.77;;
22983;SDS011;11658;48.908;9.140;2023-02-22T19:37:17;14.77;;;10.73;;
22983;SDS011;11658;48.908;9.140;2023-02-22T19:39:46;15.10;;;11.20;;
22983;SDS011;11658;48.908;9.140;2023-02-22T19:42:12;13.50;;;11.43;;
22983;SDS011;11658;48.908;9.140;2023-02-22T19:44:37;17.50;;;11.30;;
22983;SDS011;11658;48.908;9.140;2023-02-22T19:47:03;13.80;;;11.67;;
22983;SDS011;11658;48.908;9.140;2023-02-22T19:49:33;15.00;;;11.50;;
22983;SDS011;11658;48.908;9.140;2023-02-22T19:52:01;14.13;;;11.37;;
22983;SDS011;11658;48.908;9.140;2023-02-22T19:54:27;17.33;;;12.03;;
22983;SDS011;11658;48.908;9.140;2023-02-22T19:56:53;14.80;;;12.10;;
22983;SDS011;11658;48.908;9.140;2023-02-22T19:59:21;15.13;;;12.10;;
22983;SDS011;11658;48.908;9.140;2023-02-22T20:01:47;14.97;;;12.27;;
22983;SDS011;11658;48.908;9.140;2023-02-22T20:04:16;13.77;;;12.23;;
22983;SDS011;11658;48.908;9.140;2023-02-22T20:06:45;17.23;;;13.57;;
22983;SDS011;11658;48.908;9.140;2023-02-22T20:09:13;17.93;;;12.97;;
22983;SDS011;11658;48.908;9.140;2023-02-22T20:11:47;16.97;;;13.37;;
22983;SDS011;11658;48.908;9.140;2023-02-22T20:14:20;17.60;;;13.83;;
22983;SDS011;11658;48.908;9.140;2023-02-22T20:16:51;18.43;;;13.70;;
22983;SDS011;11658;48.908;9.140;2023-02-22T20:19:17;16.17;;;13.47;;
22983;SDS011;11658;48.908;9.140;2023-02-22T20:21:43;17.90;;;13.20;;
22983;SDS011;11658;48.908;9.140;2023-02-22T20:24:09;18.30;;;13.83;;
22983;SDS011;11658;48.908;9.140;2023-02-22T20:26:45;19.93;;;14.17;;
22983;SDS011;11658;48.908;9.140;2023-02-22T20:29:11;16.40;;;13.93;;
22983;SDS011;11658;48.908;9.140;2023-02-22T20:31:38;16.70;;;13.77;;
22983;SDS011;11658;48.908;9.140;2023-02-22T20:34:05;20.03;;;14.47;;
22983;SDS011;11658;48.908;9.140;2023-02-22T20:36:34;18.20;;;14.83;;
22983;SDS011;11658;48.908;9.140;2023-02-22T20:39:02;20.83;;;15.93;;
22983;SDS011;11658;48.908;9.140;2023-02-22T20:41:32;18.13;;;14.93;;
22983;SDS011;11658;48.908;9.140;2023-02-22T20:43:59;18.43;;;14.40;;
22983;SDS011;11658;48.908;9.140;2023-02-22T20:46:26;18.40;;;14.83;;
22983;SDS011;11658;48.908;9.140;2023-02-22T20:48:56;20.97;;;15.57;;
22983;SDS011;11658;48.908;9.140;2023-02-22T20:51:23;20.83;;;15.80;;
22983;SDS011;11658;48.908;9.140;2023-02-22T20:53:50;20.37;;;15.67;;
22983;SDS011;11658;48.908;9.140;2023-02-22T20:56:17;21.10;;;16.30;;
22983;SDS011;11658;48.908;9.140;2023-02-22T20:58:44;19.83;;;15.80;;
22983;SDS011;11658;48.908;9.140;2023-02-22T21:01:11;19.80;;;15.40;;
22983;SDS011;11658;48.908;9.140;2023-02-22T21:03:38;21.00;;;16.50;;
22983;SDS011;11658;48.908;9.140;2023-02-22T21:06:08;23.80;;;16.63;;
22983;SDS011;11658;48.908;9.140;2023-02-22T21:08:38;20.17;;;16.13;;
22983;SDS011;11658;48.908;9.140;2023-02-22T21:11:08;22.07;;;16.53;;
22983;SDS011;11658;48.908;9.140;2023-02-22T21:13:35;21.37;;;17.10;;
22983;SDS011;11658;48.908;9.140;2023-02-22T21:16:01;19.63;;;16.50;;